Terminal Aerodrome Forecast
Issued by NWS Jackson, MS

Home | Current Version | Previous Version | Text Only | Print | Product List | Glossary On
Versions: 1 2 3 4 5 6 7 8 9 10 11 12
925
FTUS44 KJAN 042339
TAFGWO
TAF
KGWO 042339Z 0500/0524 36004KT P6SM OVC009
     FM050200 01005KT P6SM SCT007 SCT015 BKN050
     FM051000 05006KT 5SM BR BKN007 OVC015
     FM051500 06006KT 4SM -RA BR OVC003=

USA.gov is the U.S. government's official web portal to all federal, state and local government web resources and services.